Time;durP1;ratioP1;P1;durP2;ratioP2;P2;SDS_P1;SDS_P2;PMS_P1;PMS_P2;Temp;Humidity;BMP_temperature;BMP_pressure;BME280_temperature;BME280_humidity;BME280_pressure;Samples;Min_cycle;Max_cycle;Signal;HPM_P1;HPM_P2
2022/05/18 00:00:22;;;;;;;11.85;3.20;;;;;;;;;;4992102;28;20065;-64
2022/05/18 00:02:49;;;;;;;11.40;3.17;;;;;;;;;;4992373;28;20030;-64
2022/05/18 00:05:16;;;;;;;11.20;2.75;;;;;;;;;;4992350;28;20023;-64
2022/05/18 00:07:42;;;;;;;15.02;2.95;;;;;;;;;;4992252;28;20085;-64
2022/05/18 00:10:08;;;;;;;12.27;3.55;;;;;;;;;;4992146;28;20030;-63
2022/05/18 00:12:34;;;;;;;7.32;3.17;;;;;;;;;;5006107;28;20029;-64
2022/05/18 00:15:00;;;;;;;9.23;3.05;;;;;;;;;;5009701;28;20493;-63
2022/05/18 00:17:27;;;;;;;9.50;2.90;;;;;;;;;;5011175;28;20037;-64
2022/05/18 00:19:53;;;;;;;6.80;2.75;;;;;;;;;;5011276;28;20034;-63
2022/05/18 00:22:20;;;;;;;10.65;2.58;;;;;;;;;;5011063;28;20029;-64
2022/05/18 00:24:46;;;;;;;8.60;2.95;;;;;;;;;;5011258;28;20470;-64
2022/05/18 00:27:12;;;;;;;11.45;2.42;;;;;;;;;;5011321;28;20056;-64
2022/05/18 00:29:38;;;;;;;10.90;2.50;;;;;;;;;;5011406;28;20037;-64
2022/05/18 00:32:04;;;;;;;9.73;2.70;;;;;;;;;;5010431;28;20026;-64
2022/05/18 00:34:30;;;;;;;6.38;2.08;;;;;;;;;;5011495;28;20479;-64
2022/05/18 00:36:56;;;;;;;6.72;2.30;;;;;;;;;;5010804;28;20061;-64
2022/05/18 00:39:22;;;;;;;6.30;2.00;;;;;;;;;;5011568;28;20092;-64
2022/05/18 00:41:48;;;;;;;9.32;1.75;;;;;;;;;;5011368;28;20037;-65
2022/05/18 00:44:15;;;;;;;4.18;1.60;;;;;;;;;;5011461;28;20026;-64
2022/05/18 00:46:41;;;;;;;8.48;1.95;;;;;;;;;;5004925;28;20026;-64
2022/05/18 00:49:08;;;;;;;7.88;1.90;;;;;;;;;;4992163;28;20089;-64
2022/05/18 00:51:38;;;;;;;6.68;1.52;;;;;;;;;;4991608;28;20031;-64
2022/05/18 00:54:10;;;;;;;7.55;1.77;;;;;;;;;;4991620;28;20037;-64
2022/05/18 00:56:39;;;;;;;9.00;1.58;;;;;;;;;;4991637;28;20787;-64
2022/05/18 00:59:10;;;;;;;6.18;1.30;;;;;;;;;;4991624;28;20026;-64
2022/05/18 01:01:36;;;;;;;3.47;1.15;;;;;;;;;;4991619;28;20033;-64
2022/05/18 01:04:03;;;;;;;7.47;1.50;;;;;;;;;;4992306;28;20027;-64
2022/05/18 01:06:48;;;;;;;6.97;1.52;;;;;;;;;;4996291;28;20043;-63
2022/05/18 01:09:14;;;;;;;5.47;1.50;;;;;;;;;;4995434;28;20484;-64
2022/05/18 01:11:40;;;;;;;3.63;1.25;;;;;;;;;;5001983;28;20026;-64
2022/05/18 01:14:11;;;;;;;2.88;1.48;;;;;;;;;;5015016;28;20513;-61
2022/05/18 01:16:37;;;;;;;8.18;1.40;;;;;;;;;;5014960;28;20033;-61
2022/05/18 01:19:04;;;;;;;5.15;1.38;;;;;;;;;;5014618;28;20022;-64
2022/05/18 01:21:36;;;;;;;3.40;1.15;;;;;;;;;;5014254;28;20029;-64
2022/05/18 01:24:06;;;;;;;5.93;1.30;;;;;;;;;;5014761;28;20085;-64
2022/05/18 01:26:38;;;;;;;5.15;1.40;;;;;;;;;;5014453;28;20026;-64
2022/05/18 01:29:05;;;;;;;6.78;1.77;;;;;;;;;;5014266;28;20113;-64
2022/05/18 01:31:43;;;;;;;7.05;1.70;;;;;;;;;;5014237;28;20041;-64
2022/05/18 01:34:09;;;;;;;4.13;1.38;;;;;;;;;;5014806;28;20084;-63
2022/05/18 01:36:35;;;;;;;5.78;1.60;;;;;;;;;;5014278;28;20033;-64
2022/05/18 01:39:01;;;;;;;5.65;1.35;;;;;;;;;;5013436;28;20022;-64
2022/05/18 01:41:29;;;;;;;6.53;1.73;;;;;;;;;;5014130;28;20514;-64
2022/05/18 01:43:59;;;;;;;3.90;1.20;;;;;;;;;;5014417;28;20021;-64
2022/05/18 01:46:27;;;;;;;4.03;1.42;;;;;;;;;;5014520;28;20022;-64
2022/05/18 01:48:54;;;;;;;7.40;1.55;;;;;;;;;;5013795;28;20037;-64
2022/05/18 01:51:26;;;;;;;5.82;1.35;;;;;;;;;;5013858;28;20034;-64
2022/05/18 01:53:52;;;;;;;3.20;1.02;;;;;;;;;;5014094;28;20022;-64
2022/05/18 01:56:18;;;;;;;5.20;1.23;;;;;;;;;;5006382;28;20100;-64
2022/05/18 01:58:46;;;;;;;2.25;1.00;;;;;;;;;;4994304;28;20026;-64
2022/05/18 02:01:12;;;;;;;4.20;0.90;;;;;;;;;;4994124;28;20318;-63
2022/05/18 02:03:38;;;;;;;7.95;1.25;;;;;;;;;;4994118;28;20026;-63
2022/05/18 02:06:04;;;;;;;5.45;1.38;;;;;;;;;;4993959;28;20055;-64
2022/05/18 02:08:30;;;;;;;6.03;1.27;;;;;;;;;;4994215;28;20037;-64
2022/05/18 02:10:56;;;;;;;4.50;1.40;;;;;;;;;;4994643;28;20038;-62
2022/05/18 02:13:23;;;;;;;6.15;1.50;;;;;;;;;;5012652;28;20014;-63
2022/05/18 02:15:49;;;;;;;7.57;1.92;;;;;;;;;;5013443;28;20238;-63
2022/05/18 02:18:15;;;;;;;4.05;1.40;;;;;;;;;;5013366;28;20077;-63
2022/05/18 02:20:42;;;;;;;5.88;1.27;;;;;;;;;;5013459;28;20026;-62
2022/05/18 02:23:08;;;;;;;5.53;1.35;;;;;;;;;;5013455;28;20053;-63
2022/05/18 02:25:35;;;;;;;4.88;1.33;;;;;;;;;;5013850;28;20030;-63
2022/05/18 02:28:01;;;;;;;5.32;1.30;;;;;;;;;;5013651;28;20403;-64
2022/05/18 02:30:28;;;;;;;4.68;1.38;;;;;;;;;;5012820;28;20038;-63
2022/05/18 02:32:54;;;;;;;5.13;1.38;;;;;;;;;;5013702;28;20486;-63
2022/05/18 02:35:20;;;;;;;4.90;1.40;;;;;;;;;;5013601;28;20548;-64
2022/05/18 02:37:46;;;;;;;9.48;1.42;;;;;;;;;;5013570;28;20053;-63
2022/05/18 02:40:13;;;;;;;5.53;1.83;;;;;;;;;;5013393;28;20029;-63
2022/05/18 02:42:39;;;;;;;6.13;1.65;;;;;;;;;;5013024;28;20060;-63
2022/05/18 02:45:06;;;;;;;3.22;1.48;;;;;;;;;;5013016;28;20050;-63
2022/05/18 02:47:32;;;;;;;6.72;1.95;;;;;;;;;;5003028;28;20073;-63
2022/05/18 02:49:58;;;;;;;5.10;1.65;;;;;;;;;;4993320;28;20053;-63
2022/05/18 02:52:24;;;;;;;4.93;1.45;;;;;;;;;;4993196;28;20027;-63
2022/05/18 02:57:35;;;;;;;7.28;1.70;;;;;;;;;;4993222;28;20034;-63
2022/05/18 03:00:01;;;;;;;8.80;2.00;;;;;;;;;;4992902;28;20037;-63
2022/05/18 03:02:27;;;;;;;7.18;1.80;;;;;;;;;;4993049;28;20467;-63
2022/05/18 03:04:53;;;;;;;4.93;1.70;;;;;;;;;;4994022;28;20041;-62
2022/05/18 03:07:19;;;;;;;8.98;1.67;;;;;;;;;;4993552;28;20018;-62
2022/05/18 03:09:46;;;;;;;4.25;2.05;;;;;;;;;;4993282;28;20121;-62
2022/05/18 03:12:12;;;;;;;7.32;2.10;;;;;;;;;;4992957;28;20022;-62
2022/05/18 03:14:38;;;;;;;8.45;2.00;;;;;;;;;;5008456;28;20034;-62
2022/05/18 03:17:05;;;;;;;6.97;1.77;;;;;;;;;;5012305;28;20022;-62
2022/05/18 03:19:31;;;;;;;6.05;2.08;;;;;;;;;;5012465;28;20033;-62
2022/05/18 03:24:42;;;;;;;6.75;1.35;;;;;;;;;;5012275;28;20092;-62
2022/05/18 03:27:09;;;;;;;6.43;1.35;;;;;;;;;;5026530;28;20483;-62
2022/05/18 03:29:35;;;;;;;5.07;1.38;;;;;;;;;;5011960;28;20030;-62
2022/05/18 03:32:01;;;;;;;9.00;1.42;;;;;;;;;;5027642;28;20026;-62
2022/05/18 03:34:28;;;;;;;4.55;1.23;;;;;;;;;;5012400;28;20414;-62
2022/05/18 03:36:54;;;;;;;5.35;1.20;;;;;;;;;;5012449;28;20076;-62
2022/05/18 03:39:20;;;;;;;6.10;1.35;;;;;;;;;;5011617;28;20445;-62
2022/05/18 03:41:46;;;;;;;4.32;1.38;;;;;;;;;;5012263;28;20029;-62
2022/05/18 03:44:12;;;;;;;7.57;1.65;;;;;;;;;;5012233;28;20053;-62
2022/05/18 03:46:39;;;;;;;5.93;1.55;;;;;;;;;;5011883;28;20467;-62
2022/05/18 03:49:06;;;;;;;6.03;1.65;;;;;;;;;;5011615;28;20494;-62
2022/05/18 03:51:33;;;;;;;7.50;2.20;;;;;;;;;;5011786;28;20402;-62
2022/05/18 03:53:59;;;;;;;7.55;2.30;;;;;;;;;;5011531;28;20029;-62
2022/05/18 03:56:26;;;;;;;6.13;2.20;;;;;;;;;;5010969;28;20537;-63
2022/05/18 03:58:52;;;;;;;6.93;3.20;;;;;;;;;;5011871;28;20030;-62
2022/05/18 04:01:18;;;;;;;12.63;3.53;;;;;;;;;;5011643;28;20033;-63
2022/05/18 04:03:45;;;;;;;8.55;2.80;;;;;;;;;;5011544;28;20045;-62
2022/05/18 04:06:11;;;;;;;12.88;3.38;;;;;;;;;;5011671;28;20041;-63
2022/05/18 04:08:38;;;;;;;8.95;3.00;;;;;;;;;;5011867;28;20058;-63
2022/05/18 04:11:04;;;;;;;10.23;4.25;;;;;;;;;;5011754;28;20034;-62
2022/05/18 04:13:32;;;;;;;7.53;2.30;;;;;;;;;;5010973;28;20371;-62
2022/05/18 04:15:58;;;;;;;9.45;3.00;;;;;;;;;;5011712;28;20418;-63
2022/05/18 04:18:25;;;;;;;11.30;3.40;;;;;;;;;;5011399;28;20390;-63
2022/05/18 04:20:52;;;;;;;13.98;4.28;;;;;;;;;;5026617;28;20433;-63
2022/05/18 04:23:18;;;;;;;12.55;4.25;;;;;;;;;;5010911;28;20402;-63
2022/05/18 04:25:45;;;;;;;9.18;3.15;;;;;;;;;;5011219;28;20025;-62
2022/05/18 04:28:14;;;;;;;7.20;2.83;;;;;;;;;;5011567;28;20022;-63
2022/05/18 04:30:42;;;;;;;11.48;3.35;;;;;;;;;;5010667;28;20482;-63
2022/05/18 04:33:08;;;;;;;8.00;2.60;;;;;;;;;;5026780;28;20229;-62
2022/05/18 04:35:35;;;;;;;8.85;2.90;;;;;;;;;;5011587;28;20443;-63
2022/05/18 04:38:01;;;;;;;11.57;3.03;;;;;;;;;;5011199;28;20556;-63
2022/05/18 04:40:27;;;;;;;7.60;2.58;;;;;;;;;;5010829;28;20386;-63
2022/05/18 04:42:53;;;;;;;9.55;2.80;;;;;;;;;;5011461;28;20036;-63
2022/05/18 04:45:21;;;;;;;9.68;3.70;;;;;;;;;;5011305;28;20030;-63
2022/05/18 04:47:48;;;;;;;11.75;3.88;;;;;;;;;;4991175;28;20387;-62
2022/05/18 04:50:14;;;;;;;7.03;3.17;;;;;;;;;;4991087;28;20506;-62
2022/05/18 04:52:41;;;;;;;8.65;3.42;;;;;;;;;;4991183;28;20034;-62
2022/05/18 04:55:07;;;;;;;11.82;4.13;;;;;;;;;;5006281;28;20476;-62
2022/05/18 04:57:34;;;;;;;12.07;4.78;;;;;;;;;;4991109;28;20034;-62
2022/05/18 05:00:00;;;;;;;10.40;4.35;;;;;;;;;;4991115;28;20535;-62
2022/05/18 05:02:27;;;;;;;9.02;4.03;;;;;;;;;;4991799;28;20030;-62
2022/05/18 05:04:53;;;;;;;11.45;4.13;;;;;;;;;;4991687;28;20057;-62
2022/05/18 05:07:19;;;;;;;11.57;4.68;;;;;;;;;;4991646;28;20033;-62
2022/05/18 05:09:45;;;;;;;9.02;4.22;;;;;;;;;;5006567;28;20065;-62
2022/05/18 05:12:12;;;;;;;10.35;5.07;;;;;;;;;;4991151;28;20096;-62
2022/05/18 05:14:39;;;;;;;10.73;4.35;;;;;;;;;;5022075;28;20550;-62
2022/05/18 05:17:05;;;;;;;9.65;4.53;;;;;;;;;;5010844;28;20170;-62
2022/05/18 05:19:31;;;;;;;11.40;4.60;;;;;;;;;;5009775;28;20030;-62
2022/05/18 05:21:58;;;;;;;16.88;5.40;;;;;;;;;;5010719;28;20107;-62
2022/05/18 05:24:24;;;;;;;9.30;4.72;;;;;;;;;;5010263;28;20052;-62
2022/05/18 05:26:50;;;;;;;12.15;5.30;;;;;;;;;;5026078;28;20529;-62
2022/05/18 05:29:17;;;;;;;15.30;7.03;;;;;;;;;;5010951;28;20038;-62
2022/05/18 05:31:43;;;;;;;13.60;5.45;;;;;;;;;;5010589;28;20121;-62
2022/05/18 05:34:10;;;;;;;17.13;5.82;;;;;;;;;;5010772;28;20168;-63
2022/05/18 05:36:36;;;;;;;18.27;5.55;;;;;;;;;;5009788;28;20474;-62
2022/05/18 05:39:03;;;;;;;13.13;5.20;;;;;;;;;;5010607;28;20084;-63
2022/05/18 05:41:29;;;;;;;11.85;6.32;;;;;;;;;;5025814;28;20029;-62
2022/05/18 05:43:56;;;;;;;13.93;5.88;;;;;;;;;;5010834;28;20034;-63
2022/05/18 05:46:23;;;;;;;12.90;5.15;;;;;;;;;;5010566;28;20096;-62
2022/05/18 05:48:50;;;;;;;15.18;5.80;;;;;;;;;;5010118;28;20018;-62
2022/05/18 05:51:18;;;;;;;13.23;5.38;;;;;;;;;;5011762;28;20095;-62
2022/05/18 05:53:45;;;;;;;12.70;5.65;;;;;;;;;;5011215;28;20022;-63
2022/05/18 05:56:12;;;;;;;13.27;5.55;;;;;;;;;;4994851;28;20035;-62
2022/05/18 05:58:39;;;;;;;11.95;5.13;;;;;;;;;;4994621;28;20026;-62
2022/05/18 06:01:07;;;;;;;13.45;5.57;;;;;;;;;;4994544;28;20037;-62
2022/05/18 06:03:34;;;;;;;11.63;5.25;;;;;;;;;;4994525;28;20022;-62
2022/05/18 06:06:02;;;;;;;20.35;5.38;;;;;;;;;;4994457;28;20023;-63
2022/05/18 06:08:28;;;;;;;14.60;5.40;;;;;;;;;;4994583;28;20019;-62
2022/05/18 06:10:55;;;;;;;11.73;6.10;;;;;;;;;;5001049;28;20095;-63
2022/05/18 06:13:21;;;;;;;15.77;5.50;;;;;;;;;;5013282;28;20033;-63
2022/05/18 06:15:47;;;;;;;10.63;4.53;;;;;;;;;;5013080;28;20034;-63
2022/05/18 06:18:14;;;;;;;16.30;5.38;;;;;;;;;;5013232;28;20030;-63
2022/05/18 06:20:40;;;;;;;15.60;5.07;;;;;;;;;;5008992;28;20032;-63
2022/05/18 06:23:08;;;;;;;11.85;3.67;;;;;;;;;;5022937;28;20045;-63
2022/05/18 06:25:34;;;;;;;14.48;3.70;;;;;;;;;;5010217;28;20030;-63
2022/05/18 06:28:01;;;;;;;12.18;3.50;;;;;;;;;;5003093;28;20022;-63
2022/05/18 06:30:27;;;;;;;14.90;3.75;;;;;;;;;;5000237;28;20079;-64
2022/05/18 06:32:53;;;;;;;8.00;3.00;;;;;;;;;;5004007;28;20022;-63
2022/05/18 06:35:19;;;;;;;10.82;3.63;;;;;;;;;;5000866;28;20092;-64
2022/05/18 06:37:46;;;;;;;11.00;3.50;;;;;;;;;;5007100;28;20098;-62
2022/05/18 06:40:12;;;;;;;11.32;3.00;;;;;;;;;;5006398;28;20505;-63
2022/05/18 06:42:39;;;;;;;6.95;2.97;;;;;;;;;;5003518;28;20032;-63
2022/05/18 06:45:08;;;;;;;8.95;2.97;;;;;;;;;;5004372;28;20054;-62
2022/05/18 06:47:34;;;;;;;10.48;2.53;;;;;;;;;;5004063;28;20018;-61
2022/05/18 06:50:01;;;;;;;8.23;2.92;;;;;;;;;;5012628;28;20402;-62
2022/05/18 06:52:27;;;;;;;9.65;3.28;;;;;;;;;;5012547;28;20467;-62
2022/05/18 06:54:54;;;;;;;13.63;2.40;;;;;;;;;;5010521;28;20157;-62
2022/05/18 06:57:20;;;;;;;7.80;3.05;;;;;;;;;;5008981;28;20073;-62
2022/05/18 06:59:46;;;;;;;9.82;2.35;;;;;;;;;;5010618;28;20057;-63
2022/05/18 07:02:12;;;;;;;11.98;2.75;;;;;;;;;;5004584;28;20045;-62
2022/05/18 07:04:38;;;;;;;10.93;2.47;;;;;;;;;;5010816;28;20058;-62
2022/05/18 07:07:05;;;;;;;9.38;2.92;;;;;;;;;;5012490;28;20033;-63
2022/05/18 07:09:31;;;;;;;6.75;2.22;;;;;;;;;;5012521;28;20042;-62
2022/05/18 07:11:57;;;;;;;13.23;2.25;;;;;;;;;;5011562;28;20033;-63
2022/05/18 07:14:26;;;;;;;10.05;1.90;;;;;;;;;;5004258;28;20102;-63
2022/05/18 07:16:52;;;;;;;11.35;2.47;;;;;;;;;;5007064;28;20558;-62
2022/05/18 07:19:18;;;;;;;11.85;2.42;;;;;;;;;;5001192;28;20029;-62
2022/05/18 07:21:47;;;;;;;8.80;2.63;;;;;;;;;;5004920;28;20061;-63
2022/05/18 07:24:13;;;;;;;10.07;3.15;;;;;;;;;;5004049;28;20079;-62
2022/05/18 07:26:39;;;;;;;9.38;2.20;;;;;;;;;;5006399;28;20124;-62
2022/05/18 07:29:06;;;;;;;127.18;70.85;;;;;;;;;;5007637;28;20188;-63
2022/05/18 07:32:08;;;;;;;9.88;2.25;;;;;;;;;;5001102;28;20117;-62
2022/05/18 07:34:18;;;;;;;9.82;2.20;;;;;;;;;;5006384;28;20106;-63
2022/05/18 07:36:45;;;;;;;5.72;1.67;;;;;;;;;;5000071;28;20041;-62
2022/05/18 07:39:12;;;;;;;9.80;2.22;;;;;;;;;;4992142;28;20042;-62
2022/05/18 07:41:38;;;;;;;8.80;1.92;;;;;;;;;;4991550;28;20106;-62
2022/05/18 07:44:05;;;;;;;7.20;1.98;;;;;;;;;;4992256;28;20106;-61
2022/05/18 07:46:32;;;;;;;7.10;1.98;;;;;;;;;;4992118;28;20033;-61
2022/05/18 07:48:58;;;;;;;8.27;1.73;;;;;;;;;;4991246;28;20026;-61
2022/05/18 07:51:25;;;;;;;6.10;2.10;;;;;;;;;;5008844;28;20038;-61
2022/05/18 07:53:51;;;;;;;7.25;1.90;;;;;;;;;;5005020;28;20029;-62
2022/05/18 07:56:17;;;;;;;6.97;2.03;;;;;;;;;;5006580;28;20060;-63
2022/05/18 07:58:43;;;;;;;8.55;1.92;;;;;;;;;;5011202;28;20029;-62
2022/05/18 08:01:09;;;;;;;5.15;1.42;;;;;;;;;;5011591;28;20041;-62
2022/05/18 08:03:36;;;;;;;6.28;1.60;;;;;;;;;;5008868;28;20025;-63
2022/05/18 08:06:02;;;;;;;8.35;1.95;;;;;;;;;;5007457;28;20034;-62
2022/05/18 08:08:28;;;;;;;5.65;1.40;;;;;;;;;;5011665;28;20025;-62
2022/05/18 08:16:25;;;;;;;5.85;1.35;;;;;;;;;;5007500;28;20070;-62
2022/05/18 08:18:51;;;;;;;5.45;1.40;;;;;;;;;;5010618;28;20021;-62
2022/05/18 08:21:18;;;;;;;6.50;1.63;;;;;;;;;;5011605;28;20041;-61
2022/05/18 08:23:44;;;;;;;6.05;1.20;;;;;;;;;;5011268;28;20046;-62
2022/05/18 08:26:10;;;;;;;6.35;1.25;;;;;;;;;;5011538;28;20084;-62
2022/05/18 08:28:37;;;;;;;10.40;1.60;;;;;;;;;;5006129;28;20021;-62
2022/05/18 08:31:04;;;;;;;6.40;1.67;;;;;;;;;;5011046;28;20041;-62
2022/05/18 08:33:33;;;;;;;9.23;1.92;;;;;;;;;;5011200;28;20030;-62
2022/05/18 08:36:00;;;;;;;7.22;1.77;;;;;;;;;;5009408;28;20030;-62
2022/05/18 08:38:26;;;;;;;10.93;1.77;;;;;;;;;;5006101;28;20026;-62
2022/05/18 08:40:55;;;;;;;6.38;1.40;;;;;;;;;;5004226;28;20022;-63
2022/05/18 08:43:26;;;;;;;6.43;1.38;;;;;;;;;;5010514;28;20033;-63
2022/05/18 08:46:00;;;;;;;8.85;1.98;;;;;;;;;;5010828;28;20033;-63
2022/05/18 08:48:26;;;;;;;8.93;1.50;;;;;;;;;;5007971;28;20026;-62
2022/05/18 08:50:54;;;;;;;9.95;1.90;;;;;;;;;;5007511;28;20042;-62
2022/05/18 08:53:20;;;;;;;8.35;1.80;;;;;;;;;;5008159;28;20037;-62
2022/05/18 08:55:46;;;;;;;5.97;1.27;;;;;;;;;;5007017;28;20025;-62
2022/05/18 08:58:15;;;;;;;6.18;1.50;;;;;;;;;;5008704;28;20466;-62
2022/05/18 09:00:47;;;;;;;5.22;1.30;;;;;;;;;;5000939;28;20031;-63
2022/05/18 09:03:20;;;;;;;5.13;1.23;;;;;;;;;;5009124;28;20037;-62
2022/05/18 09:05:58;;;;;;;5.22;1.40;;;;;;;;;;5010375;28;20018;-63
2022/05/18 09:08:28;;;;;;;7.25;1.48;;;;;;;;;;5007030;28;20018;-62
2022/05/18 09:10:54;;;;;;;8.35;1.67;;;;;;;;;;5006508;28;20528;-62
2022/05/18 09:13:20;;;;;;;6.03;1.50;;;;;;;;;;5008133;28;20026;-62
2022/05/18 09:16:02;;;;;;;7.03;2.35;;;;;;;;;;5009266;28;20037;-62
2022/05/18 09:18:29;;;;;;;7.10;1.58;;;;;;;;;;5005667;28;20029;-61
2022/05/18 09:21:16;;;;;;;4.80;1.25;;;;;;;;;;5008495;28;20072;-62
2022/05/18 09:23:57;;;;;;;7.50;1.75;;;;;;;;;;5006243;28;20046;-61
2022/05/18 09:26:29;;;;;;;6.30;1.30;;;;;;;;;;5008372;28;20387;-62
2022/05/18 09:29:04;;;;;;;6.80;1.60;;;;;;;;;;5011539;28;20026;-62
2022/05/18 09:31:49;;;;;;;8.07;1.60;;;;;;;;;;5011892;28;20041;-63
2022/05/18 09:34:31;;;;;;;9.13;1.58;;;;;;;;;;5014198;28;20040;-62
2022/05/18 09:37:14;;;;;;;8.63;1.90;;;;;;;;;;4994374;28;20042;-62
2022/05/18 09:39:43;;;;;;;6.53;1.30;;;;;;;;;;5007970;28;20052;-62
2022/05/18 09:42:12;;;;;;;7.53;1.58;;;;;;;;;;5013129;28;20442;-63
2022/05/18 09:44:47;;;;;;;6.43;1.27;;;;;;;;;;5014249;28;20084;-62
2022/05/18 09:47:15;;;;;;;8.48;1.70;;;;;;;;;;5009300;28;20029;-63
2022/05/18 09:49:44;;;;;;;7.85;1.58;;;;;;;;;;5012508;28;20042;-62
2022/05/18 09:52:10;;;;;;;8.80;1.70;;;;;;;;;;5004603;28;20034;-62
2022/05/18 09:54:37;;;;;;;10.52;1.92;;;;;;;;;;5013478;28;20022;-62
2022/05/18 09:57:04;;;;;;;8.63;1.83;;;;;;;;;;5014225;28;20030;-62
2022/05/18 09:59:35;;;;;;;8.88;1.85;;;;;;;;;;5008603;28;20034;-62
2022/05/18 10:07:45;;;;;;;6.55;1.55;;;;;;;;;;4994614;28;20513;-62
2022/05/18 10:10:17;;;;;;;9.13;2.22;;;;;;;;;;5008724;28;20096;-62
2022/05/18 10:12:48;;;;;;;8.50;1.90;;;;;;;;;;5013818;28;20029;-62
2022/05/18 10:15:22;;;;;;;8.88;1.80;;;;;;;;;;5013731;28;20050;-62
2022/05/18 10:17:59;;;;;;;11.95;2.25;;;;;;;;;;5013802;28;20068;-62
2022/05/18 10:20:25;;;;;;;7.95;2.10;;;;;;;;;;5013829;28;20105;-60
2022/05/18 10:22:51;;;;;;;10.35;1.70;;;;;;;;;;5013533;28;20057;-64
2022/05/18 10:25:26;;;;;;;7.68;1.63;;;;;;;;;;5013556;28;20038;-61
2022/05/18 10:27:52;;;;;;;6.80;1.70;;;;;;;;;;4993851;28;20042;-62
2022/05/18 10:30:18;;;;;;;7.78;1.60;;;;;;;;;;4993496;28;20049;-62
2022/05/18 10:32:52;;;;;;;8.77;1.67;;;;;;;;;;4993768;28;20014;-62
2022/05/18 10:35:35;;;;;;;9.45;1.95;;;;;;;;;;4993424;28;20414;-63
2022/05/18 10:38:02;;;;;;;6.53;1.47;;;;;;;;;;4993307;28;20543;-62
2022/05/18 10:40:29;;;;;;;6.32;1.83;;;;;;;;;;4993238;28;20035;-63
2022/05/18 10:43:10;;;;;;;10.20;1.80;;;;;;;;;;4993588;28;20019;-62
2022/05/18 10:45:37;;;;;;;8.13;2.25;;;;;;;;;;4993395;28;20089;-62
2022/05/18 10:48:23;;;;;;;8.95;1.50;;;;;;;;;;5008205;28;20710;-63
2022/05/18 10:50:59;;;;;;;6.50;1.50;;;;;;;;;;4993224;28;20031;-62
2022/05/18 10:53:34;;;;;;;5.78;1.60;;;;;;;;;;4993409;28;20058;-62
2022/05/18 10:56:05;;;;;;;9.20;1.73;;;;;;;;;;4993165;28;20121;-62
2022/05/18 10:58:31;;;;;;;6.40;1.50;;;;;;;;;;4992726;28;20038;-61
2022/05/18 11:00:57;;;;;;;5.07;1.40;;;;;;;;;;4993574;28;20026;-63
2022/05/18 11:03:27;;;;;;;8.38;1.80;;;;;;;;;;4992763;28;20033;-61
2022/05/18 11:05:56;;;;;;;9.23;1.73;;;;;;;;;;4993106;28;20030;-61
2022/05/18 11:08:24;;;;;;;9.65;1.63;;;;;;;;;;4993209;28;20077;-61
2022/05/18 11:11:09;;;;;;;4.82;1.38;;;;;;;;;;4993165;28;20038;-60
2022/05/18 11:13:38;;;;;;;6.50;1.23;;;;;;;;;;4992846;28;20030;-61
2022/05/18 11:16:23;;;;;;;6.47;1.30;;;;;;;;;;4992933;28;20038;-61
2022/05/18 11:18:58;;;;;;;7.50;1.45;;;;;;;;;;5012324;28;20029;-61
2022/05/18 11:21:30;;;;;;;8.05;1.45;;;;;;;;;;5012392;28;20140;-62
2022/05/18 11:24:06;;;;;;;7.05;1.40;;;;;;;;;;5012204;28;20069;-61
2022/05/18 11:26:32;;;;;;;5.72;1.60;;;;;;;;;;5012412;28;20125;-60
2022/05/18 11:29:05;;;;;;;8.27;1.45;;;;;;;;;;5012220;28;20026;-61
2022/05/18 11:31:34;;;;;;;6.18;1.52;;;;;;;;;;5012231;28;20065;-61
2022/05/18 11:34:15;;;;;;;4.60;1.15;;;;;;;;;;5011008;28;20045;-60
2022/05/18 11:36:41;;;;;;;5.47;1.63;;;;;;;;;;5011809;28;20034;-61
2022/05/18 11:39:12;;;;;;;10.05;1.30;;;;;;;;;;5011804;28;20108;-60
2022/05/18 11:42:01;;;;;;;6.03;1.27;;;;;;;;;;5011727;28;20105;-61
2022/05/18 11:44:34;;;;;;;6.10;1.25;;;;;;;;;;5008750;28;20045;-60
2022/05/18 11:47:03;;;;;;;8.38;1.30;;;;;;;;;;5012027;28;20493;-61
2022/05/18 11:49:29;;;;;;;6.70;1.52;;;;;;;;;;5011450;28;20034;-61
2022/05/18 11:52:11;;;;;;;8.35;1.50;;;;;;;;;;5010852;28;20526;-61
2022/05/18 11:54:56;;;;;;;5.85;1.55;;;;;;;;;;5011787;28;20053;-60
2022/05/18 11:57:40;;;;;;;11.55;1.70;;;;;;;;;;5011805;28;20026;-60
2022/05/18 12:00:15;;;;;;;9.00;1.48;;;;;;;;;;5011744;28;20022;-61
2022/05/18 12:02:42;;;;;;;5.38;1.15;;;;;;;;;;5011859;28;20034;-60
2022/05/18 12:05:08;;;;;;;7.03;1.15;;;;;;;;;;5011448;28;20427;-60
2022/05/18 12:07:34;;;;;;;5.68;1.58;;;;;;;;;;5009324;28;20510;-61
2022/05/18 12:10:21;;;;;;;9.18;1.52;;;;;;;;;;4991655;28;20039;-61
2022/05/18 12:12:53;;;;;;;6.18;1.50;;;;;;;;;;4991860;28;20033;-62
2022/05/18 12:15:34;;;;;;;11.48;2.30;;;;;;;;;;4992042;28;20105;-62
2022/05/18 12:18:04;;;;;;;9.02;1.45;;;;;;;;;;4991746;28;20033;-62
2022/05/18 12:20:39;;;;;;;8.30;1.13;;;;;;;;;;4991855;28;20090;-62
2022/05/18 12:23:10;;;;;;;7.80;2.20;;;;;;;;;;4991173;28;20041;-62
2022/05/18 12:25:37;;;;;;;7.65;1.60;;;;;;;;;;4992289;28;20100;-61
2022/05/18 12:28:05;;;;;;;4.85;1.23;;;;;;;;;;4991800;28;20539;-62
2022/05/18 12:30:33;;;;;;;6.07;1.35;;;;;;;;;;4991478;28;20030;-61
2022/05/18 12:33:01;;;;;;;7.95;1.02;;;;;;;;;;4991532;28;20101;-61
2022/05/18 12:35:46;;;;;;;6.03;1.20;;;;;;;;;;4991549;28;20050;-61
2022/05/18 12:38:20;;;;;;;5.95;0.90;;;;;;;;;;4991409;28;20026;-61
2022/05/18 12:40:50;;;;;;;7.85;1.30;;;;;;;;;;4991334;28;20108;-61
2022/05/18 12:43:16;;;;;;;6.13;1.15;;;;;;;;;;4992082;28;20391;-62
2022/05/18 12:45:44;;;;;;;6.28;1.30;;;;;;;;;;4991611;28;20030;-61
2022/05/18 12:48:13;;;;;;;7.60;0.95;;;;;;;;;;4991551;28;20025;-62
2022/05/18 12:50:50;;;;;;;4.47;1.08;;;;;;;;;;4991260;28;20422;-61
2022/05/18 12:53:23;;;;;;;7.20;1.38;;;;;;;;;;4991343;28;20029;-62
2022/05/18 12:55:52;;;;;;;5.93;0.70;;;;;;;;;;4991413;28;20030;-62
2022/05/18 12:58:25;;;;;;;4.88;1.10;;;;;;;;;;4991496;28;20030;-61
2022/05/18 13:01:09;;;;;;;5.55;1.10;;;;;;;;;;5012453;28;20057;-62
2022/05/18 13:03:43;;;;;;;6.82;1.20;;;;;;;;;;5014547;28;20061;-62
2022/05/18 13:06:36;;;;;;;4.22;1.02;;;;;;;;;;5014627;28;20022;-62
2022/05/18 13:09:05;;;;;;;4.05;0.88;;;;;;;;;;5013957;28;20167;-61
2022/05/18 13:11:46;;;;;;;2.58;0.70;;;;;;;;;;5014752;28;20058;-61
2022/05/18 13:14:24;;;;;;;7.57;0.93;;;;;;;;;;5014759;28;20038;-61
2022/05/18 13:16:50;;;;;;;8.40;1.30;;;;;;;;;;5013753;28;20046;-61
2022/05/18 13:19:21;;;;;;;6.45;1.10;;;;;;;;;;5014597;28;20096;-62
2022/05/18 13:21:52;;;;;;;7.22;1.27;;;;;;;;;;5014693;28;20045;-61
2022/05/18 13:24:24;;;;;;;4.70;0.90;;;;;;;;;;5014299;28;20125;-61
2022/05/18 13:26:51;;;;;;;7.63;1.40;;;;;;;;;;5014784;28;20056;-61
2022/05/18 13:29:22;;;;;;;4.43;1.10;;;;;;;;;;5014415;28;20026;-61
2022/05/18 13:31:49;;;;;;;5.00;1.30;;;;;;;;;;5014477;28;20084;-61
2022/05/18 13:34:20;;;;;;;4.97;1.23;;;;;;;;;;5013044;28;20018;-61
2022/05/18 13:36:46;;;;;;;4.95;1.30;;;;;;;;;;5013591;28;20036;-61
2022/05/18 13:39:14;;;;;;;5.68;1.30;;;;;;;;;;5013880;28;20067;-61
2022/05/18 13:41:42;;;;;;;4.85;1.10;;;;;;;;;;5013691;28;20034;-62
2022/05/18 13:44:09;;;;;;;6.15;1.38;;;;;;;;;;5011793;28;20091;-61
2022/05/18 13:46:35;;;;;;;6.95;1.30;;;;;;;;;;5009018;28;20092;-61
2022/05/18 13:49:14;;;;;;;5.65;1.27;;;;;;;;;;5014245;28;20036;-61
2022/05/18 13:51:42;;;;;;;8.32;1.40;;;;;;;;;;5014820;28;20076;-61
2022/05/18 13:54:10;;;;;;;8.90;1.65;;;;;;;;;;5013903;28;20026;-62
2022/05/18 13:56:42;;;;;;;9.52;1.52;;;;;;;;;;5010414;28;20034;-61
2022/05/18 13:59:09;;;;;;;8.82;1.70;;;;;;;;;;5013632;28;20028;-62
2022/05/18 14:01:50;;;;;;;8.68;2.00;;;;;;;;;;5014117;28;20022;-62
2022/05/18 14:04:22;;;;;;;11.40;1.70;;;;;;;;;;5013200;28;20443;-62
2022/05/18 14:06:49;;;;;;;7.43;1.55;;;;;;;;;;5011301;28;20487;-62
2022/05/18 14:09:17;;;;;;;6.32;1.33;;;;;;;;;;5013044;28;20029;-61
2022/05/18 14:11:43;;;;;;;7.40;1.60;;;;;;;;;;5013381;28;20021;-62
2022/05/18 14:14:09;;;;;;;8.85;1.50;;;;;;;;;;5013380;28;20076;-61
2022/05/18 14:16:42;;;;;;;11.73;1.77;;;;;;;;;;5013380;28;20037;-62
2022/05/18 14:19:09;;;;;;;6.65;1.52;;;;;;;;;;5013227;28;20053;-62
2022/05/18 14:21:38;;;;;;;8.55;1.48;;;;;;;;;;5013895;28;20045;-61
2022/05/18 14:24:09;;;;;;;9.27;1.17;;;;;;;;;;5012607;28;20042;-61
2022/05/18 14:26:48;;;;;;;5.32;1.45;;;;;;;;;;5013604;28;20037;-60
2022/05/18 14:29:18;;;;;;;5.93;1.15;;;;;;;;;;5013359;28;20049;-62
2022/05/18 14:31:47;;;;;;;6.18;1.45;;;;;;;;;;5013115;28;20127;-61
2022/05/18 14:34:13;;;;;;;6.55;1.38;;;;;;;;;;5008422;28;20471;-62
2022/05/18 14:36:50;;;;;;;7.68;1.50;;;;;;;;;;5007689;28;20096;-61
2022/05/18 14:39:35;;;;;;;6.57;1.20;;;;;;;;;;5007104;28;20026;-62
2022/05/18 14:42:02;;;;;;;6.88;1.40;;;;;;;;;;5010062;28;20026;-62
2022/05/18 14:44:36;;;;;;;8.55;1.88;;;;;;;;;;5008141;28;20081;-61
2022/05/18 14:47:07;;;;;;;9.98;1.65;;;;;;;;;;5008894;28;20537;-62
2022/05/18 14:49:38;;;;;;;10.38;1.60;;;;;;;;;;5010676;28;20022;-62
2022/05/18 14:52:06;;;;;;;6.68;1.35;;;;;;;;;;5009119;28;20649;-62
2022/05/18 14:54:32;;;;;;;6.63;1.40;;;;;;;;;;5008370;28;20065;-62
2022/05/18 14:57:00;;;;;;;3.25;1.10;;;;;;;;;;5008367;28;20030;-62
2022/05/18 14:59:26;;;;;;;3.42;1.20;;;;;;;;;;5003713;28;20053;-62
2022/05/18 15:01:58;;;;;;;3.00;0.60;;;;;;;;;;5026416;28;20487;-62
2022/05/18 15:04:27;;;;;;;5.57;0.90;;;;;;;;;;5006502;28;20500;-62
2022/05/18 15:06:56;;;;;;;4.30;1.10;;;;;;;;;;5007483;28;20034;-62